Time;durP1;ratioP1;P1;durP2;ratioP2;P2;SDS_P1;SDS_P2;PMS_P1;PMS_P2;Temp;Humidity;BMP_temperature;BMP_pressure;BME280_temperature;BME280_humidity;BME280_pressure;Samples;Min_cycle;Max_cycle;Signal;HPM_P1;HPM_P2
2024/01/17 06:01:22;;;;;;;30.48;15.30;;;-1.10;89.20;;;;;;4443014;23;20110;-82
2024/01/17 06:03:24;;;;;;;29.98;15.60;;;-1.20;89.60;;;;;;4101506;29;20051;-82
2024/01/17 06:05:27;;;;;;;31.88;15.15;;;-1.10;89.40;;;;;;4101730;29;20054;-83
2024/01/17 06:07:28;;;;;;;36.55;16.15;;;-1.10;89.90;;;;;;4101331;29;20055;-83
2024/01/17 06:09:30;;;;;;;28.52;15.95;;;-1.10;89.70;;;;;;4101969;29;20090;-81
2024/01/17 06:11:32;;;;;;;27.45;15.57;;;-1.20;90.00;;;;;;4103831;29;20051;-82
2024/01/17 06:13:34;;;;;;;31.02;16.77;;;-1.20;90.10;;;;;;4106733;28;20051;-83
2024/01/17 06:15:35;;;;;;;27.98;14.57;;;-1.20;90.10;;;;;;4107420;29;20054;-85
2024/01/17 06:17:38;;;;;;;27.67;15.93;;;-1.10;90.10;;;;;;4087505;29;20497;-83
2024/01/17 06:19:41;;;;;;;30.80;16.63;;;-1.10;90.00;;;;;;4101005;29;20043;-82
2024/01/17 06:21:43;;;;;;;30.15;16.08;;;-1.10;90.10;;;;;;4106014;29;20404;-83
2024/01/17 06:23:45;;;;;;;30.52;17.48;;;-1.00;90.10;;;;;;4101279;29;20055;-82
2024/01/17 06:25:46;;;;;;;29.25;15.40;;;-1.10;90.20;;;;;;4100650;29;20044;-83
2024/01/17 06:27:48;;;;;;;34.15;16.83;;;-1.00;90.30;;;;;;4100913;29;20047;-82
2024/01/17 06:29:51;;;;;;;30.73;16.67;;;-1.10;90.50;;;;;;4100728;29;20462;-82
2024/01/17 06:31:53;;;;;;;28.33;16.48;;;-1.10;90.60;;;;;;4100848;29;20074;-81
2024/01/17 06:33:56;;;;;;;31.52;16.75;;;-1.20;90.80;;;;;;4100747;29;20044;-81
2024/01/17 06:35:58;;;;;;;33.45;18.48;;;-1.20;91.10;;;;;;4100850;29;20058;-82
2024/01/17 06:38:00;;;;;;;35.88;17.90;;;-1.20;91.40;;;;;;4100360;29;20134;-81
2024/01/17 06:40:01;;;;;;;35.72;17.83;;;-1.30;91.50;;;;;;4100832;29;20097;-82
2024/01/17 06:42:03;;;;;;;31.95;16.70;;;-1.30;91.80;;;;;;4100515;29;20456;-81
2024/01/17 06:44:05;;;;;;;36.25;17.13;;;-1.30;91.80;;;;;;4100748;29;20111;-82
2024/01/17 06:46:07;;;;;;;31.42;17.17;;;-1.20;91.90;;;;;;4100776;29;20047;-82
2024/01/17 06:48:09;;;;;;;29.33;15.35;;;-1.20;91.90;;;;;;4100559;29;20059;-82
2024/01/17 06:50:13;;;;;;;30.60;17.08;;;-1.30;92.20;;;;;;4100632;29;20460;-82
2024/01/17 06:52:15;;;;;;;35.08;17.85;;;-1.20;92.50;;;;;;4100399;29;20051;-82
2024/01/17 06:54:17;;;;;;;34.55;17.80;;;-1.30;92.70;;;;;;4100647;29;20047;-82
2024/01/17 06:56:19;;;;;;;37.65;17.75;;;-1.30;92.90;;;;;;4100659;29;20066;-81
2024/01/17 06:58:21;;;;;;;31.88;18.13;;;-1.30;93.00;;;;;;4100601;29;20105;-83
2024/01/17 07:00:24;;;;;;;34.70;18.85;;;-1.30;93.20;;;;;;4100435;29;20058;-83
2024/01/17 07:02:26;;;;;;;33.85;16.45;;;-1.30;93.30;;;;;;4100519;29;20473;-82
2024/01/17 07:04:28;;;;;;;35.67;18.83;;;-1.30;93.30;;;;;;4100347;29;20078;-83
2024/01/17 07:06:31;;;;;;;31.13;16.88;;;-1.20;93.40;;;;;;4100741;29;20051;-82
2024/01/17 07:08:33;;;;;;;33.55;18.05;;;-1.20;93.50;;;;;;4100448;29;20047;-82
2024/01/17 07:10:36;;;;;;;31.08;17.27;;;-1.20;93.60;;;;;;4100588;29;20531;-81
2024/01/17 07:12:37;;;;;;;34.97;17.90;;;-1.20;93.60;;;;;;4100070;29;20062;-83
2024/01/17 07:14:39;;;;;;;34.60;17.67;;;-1.20;93.80;;;;;;4100406;29;20556;-81
2024/01/17 07:16:41;;;;;;;33.15;17.45;;;-1.20;94.00;;;;;;4101350;29;20059;-79
2024/01/17 07:18:43;;;;;;;34.38;17.60;;;-1.20;94.00;;;;;;4100617;29;20047;-81
2024/01/17 07:20:44;;;;;;;32.72;17.63;;;-1.10;94.10;;;;;;4100257;29;20055;-81
2024/01/17 07:22:47;;;;;;;32.67;17.92;;;-1.10;94.20;;;;;;4100410;29;20473;-81
2024/01/17 07:24:49;;;;;;;34.22;19.27;;;-1.00;94.20;;;;;;4102368;28;20047;-82
2024/01/17 07:26:50;;;;;;;31.35;17.95;;;-1.00;94.20;;;;;;4103671;29;20047;-82
2024/01/17 07:28:52;;;;;;;30.30;17.73;;;-0.90;94.30;;;;;;4103663;29;20043;-83
2024/01/17 07:30:54;;;;;;;33.90;18.85;;;-0.80;94.50;;;;;;4103442;29;20055;-81
2024/01/17 07:32:56;;;;;;;32.30;18.33;;;-0.80;94.60;;;;;;4103396;29;20089;-83
2024/01/17 07:34:58;;;;;;;35.92;19.40;;;-0.70;94.70;;;;;;4103518;29;20055;-82
2024/01/17 07:37:00;;;;;;;34.50;18.58;;;-0.70;94.50;;;;;;4103349;29;20448;-82
2024/01/17 07:39:04;;;;;;;34.90;19.35;;;-0.60;94.40;;;;;;4086207;29;20056;-81
2024/01/17 07:41:05;;;;;;;32.55;18.88;;;-0.60;94.30;;;;;;4103283;29;20051;-82
2024/01/17 07:43:07;;;;;;;33.15;18.83;;;-0.60;94.30;;;;;;4104194;29;20049;-82
2024/01/17 07:45:10;;;;;;;34.63;18.40;;;-0.50;94.50;;;;;;4105046;29;20051;-82
2024/01/17 07:47:12;;;;;;;34.13;19.30;;;-0.50;94.40;;;;;;4103171;29;20054;-82
2024/01/17 07:49:14;;;;;;;35.03;18.70;;;-0.40;94.40;;;;;;4103182;29;20051;-81
2024/01/17 07:51:16;;;;;;;36.38;19.05;;;-0.30;94.40;;;;;;4103126;29;20047;-81
2024/01/17 07:53:17;;;;;;;35.13;18.85;;;-0.30;94.40;;;;;;4103068;29;20051;-81
2024/01/17 07:55:21;;;;;;;37.10;20.25;;;-0.30;94.40;;;;;;4103080;29;20070;-81
2024/01/17 07:57:23;;;;;;;37.05;20.52;;;-0.30;94.50;;;;;;4103146;29;20051;-83
2024/01/17 07:59:24;;;;;;;37.72;19.77;;;-0.30;94.50;;;;;;4102917;29;20047;-82
2024/01/17 08:01:26;;;;;;;38.85;22.10;;;-0.30;94.70;;;;;;4085873;29;20087;-81
2024/01/17 08:03:28;;;;;;;37.25;21.60;;;-0.30;94.90;;;;;;4103033;29;20069;-80
2024/01/17 08:05:31;;;;;;;36.60;19.80;;;-0.20;94.90;;;;;;4103158;29;20051;-81
2024/01/17 08:07:35;;;;;;;39.22;22.35;;;-0.10;95.30;;;;;;4102984;29;20099;-81
2024/01/17 08:09:36;;;;;;;37.35;21.50;;;-0.10;95.20;;;;;;4103103;29;20074;-81
2024/01/17 08:11:40;;;;;;;42.40;22.17;;;0.00;95.40;;;;;;4103042;29;20047;-82
2024/01/17 08:13:42;;;;;;;42.13;22.13;;;0.00;95.40;;;;;;4102807;29;20058;-80
2024/01/17 08:15:42;;;;;;;40.83;23.17;;;-0.10;95.50;;;;;;4102876;29;20051;-81
2024/01/17 08:17:47;;;;;;;40.55;22.30;;;0.00;95.90;;;;;;4102832;29;20055;-82
2024/01/17 08:19:49;;;;;;;44.28;23.02;;;0.10;95.80;;;;;;4102851;29;20133;-79
2024/01/17 08:21:53;;;;;;;40.95;22.38;;;0.10;95.60;;;;;;4102994;29;20051;-81
2024/01/17 08:23:55;;;;;;;40.20;21.95;;;0.20;95.20;;;;;;4102554;29;20079;-81
2024/01/17 08:25:56;;;;;;;37.22;20.58;;;0.30;94.80;;;;;;4102690;29;20100;-81
2024/01/17 08:28:00;;;;;;;34.60;19.10;;;0.40;94.70;;;;;;4102448;29;20055;-79
2024/01/17 08:30:01;;;;;;;36.03;20.40;;;0.40;94.70;;;;;;4102624;29;20134;-80
2024/01/17 08:32:03;;;;;;;37.60;21.23;;;0.50;94.70;;;;;;4102551;29;20051;-81
2024/01/17 08:34:05;;;;;;;37.28;21.10;;;0.60;94.50;;;;;;4102719;29;20050;-81
2024/01/17 08:36:07;;;;;;;34.72;20.35;;;0.60;94.70;;;;;;4102085;28;20110;-81
2024/01/17 08:38:08;;;;;;;38.45;21.35;;;0.70;94.40;;;;;;4102608;29;20111;-82
2024/01/17 08:40:12;;;;;;;38.83;22.50;;;0.70;94.20;;;;;;4102531;29;20544;-84
2024/01/17 08:42:14;;;;;;;38.25;21.77;;;0.70;94.50;;;;;;4102607;29;20051;-82
2024/01/17 08:44:18;;;;;;;39.90;22.50;;;0.80;94.40;;;;;;4103307;29;20047;-80
2024/01/17 08:46:21;;;;;;;39.25;22.35;;;0.70;94.90;;;;;;4089249;29;20540;-84
2024/01/17 08:48:22;;;;;;;43.85;21.52;;;0.70;95.10;;;;;;4103227;29;20138;-84
2024/01/17 08:50:25;;;;;;;37.50;22.25;;;0.70;95.00;;;;;;4102745;29;20099;-85
2024/01/17 08:52:27;;;;;;;38.35;21.42;;;0.80;94.60;;;;;;4102670;29;20134;-83
2024/01/17 08:54:29;;;;;;;38.88;21.27;;;0.80;94.60;;;;;;4085726;29;20059;-84
2024/01/17 08:56:31;;;;;;;41.47;22.67;;;0.90;94.70;;;;;;4102048;29;20047;-85
2024/01/17 08:58:33;;;;;;;38.15;22.40;;;0.90;94.80;;;;;;4102920;29;20106;-85
2024/01/17 09:00:36;;;;;;;37.83;22.27;;;1.00;94.60;;;;;;4099876;28;20055;-83
2024/01/17 09:02:38;;;;;;;39.78;21.52;;;1.00;94.50;;;;;;4100340;29;20055;-79
2024/01/17 09:04:40;;;;;;;42.53;24.65;;;1.00;94.40;;;;;;4100144;29;20055;-78
2024/01/17 09:06:42;;;;;;;43.90;23.95;;;1.00;94.70;;;;;;4099909;29;20058;-79
2024/01/17 09:08:44;;;;;;;47.45;24.83;;;1.00;95.00;;;;;;4100061;29;20063;-79
2024/01/17 09:10:46;;;;;;;47.65;26.10;;;1.00;95.00;;;;;;4099463;29;20051;-80
2024/01/17 09:12:48;;;;;;;47.60;26.15;;;1.00;95.10;;;;;;4099735;29;20398;-81
2024/01/17 09:14:50;;;;;;;39.70;24.15;;;1.00;95.10;;;;;;4099817;29;20051;-78
2024/01/17 09:16:55;;;;;;;43.13;25.20;;;1.10;94.80;;;;;;4097783;29;20044;-80
2024/01/17 09:18:57;;;;;;;46.60;25.75;;;1.10;94.70;;;;;;4099803;29;20523;-80
2024/01/17 09:20:59;;;;;;;49.78;26.60;;;1.20;94.90;;;;;;4099747;29;20110;-81
2024/01/17 09:23:00;;;;;;;45.63;25.52;;;1.20;95.00;;;;;;4099443;29;20148;-78
2024/01/17 09:25:02;;;;;;;45.47;25.48;;;1.30;94.70;;;;;;4099682;29;20445;-80
2024/01/17 09:27:05;;;;;;;44.60;24.58;;;1.30;94.60;;;;;;4099502;29;20051;-78
2024/01/17 09:29:07;;;;;;;41.92;24.83;;;1.30;94.70;;;;;;4099954;29;20192;-81
2024/01/17 09:31:09;;;;;;;50.35;27.83;;;1.30;94.80;;;;;;4099466;29;20059;-80
2024/01/17 09:33:12;;;;;;;55.65;28.23;;;1.20;95.10;;;;;;4099125;29;20415;-81
2024/01/17 09:35:14;;;;;;;46.67;28.13;;;1.10;95.50;;;;;;4099538;29;20114;-79
2024/01/17 09:37:16;;;;;;;51.33;28.05;;;1.20;95.60;;;;;;4099557;29;20481;-82
2024/01/17 09:39:18;;;;;;;49.40;27.15;;;1.10;95.60;;;;;;4099428;29;20059;-80
2024/01/17 09:41:19;;;;;;;52.00;27.50;;;1.10;95.50;;;;;;4099189;29;20134;-82
2024/01/17 09:43:21;;;;;;;50.67;27.17;;;1.20;95.50;;;;;;4099058;29;20094;-80
2024/01/17 09:45:25;;;;;;;47.10;27.60;;;1.30;95.20;;;;;;4099307;29;20444;-80
2024/01/17 09:47:27;;;;;;;44.53;26.38;;;1.20;95.20;;;;;;4098208;28;20117;-78
2024/01/17 09:49:31;;;;;;;45.58;26.08;;;1.30;95.20;;;;;;4099223;29;20062;-79
2024/01/17 09:51:33;;;;;;;48.75;26.80;;;1.30;94.80;;;;;;4099105;29;20106;-79
2024/01/17 09:53:36;;;;;;;45.97;24.98;;;1.40;94.80;;;;;;4099196;29;20051;-81
2024/01/17 09:55:40;;;;;;;45.33;26.65;;;1.50;94.60;;;;;;4099132;29;20183;-82
2024/01/17 09:57:51;;;;;;;45.40;25.48;;;1.50;94.70;;;;;;4099140;29;20130;-78
2024/01/17 10:00:05;;;;;;;53.13;29.48;;;1.60;94.40;;;;;;4098851;29;20066;-80
2024/01/17 10:02:08;;;;;;;42.75;25.30;;;1.60;94.60;;;;;;4098793;29;20063;-78
2024/01/17 10:04:12;;;;;;;45.15;26.20;;;1.50;94.90;;;;;;4098862;29;20055;-79
2024/01/17 10:06:17;;;;;;;47.15;26.02;;;1.60;94.70;;;;;;4099230;29;20138;-79
2024/01/17 10:08:18;;;;;;;46.05;25.42;;;1.60;94.80;;;;;;4099496;29;20485;-85
2024/01/17 10:10:21;;;;;;;44.80;26.83;;;1.60;94.70;;;;;;4099840;29;20164;-80
2024/01/17 10:12:23;;;;;;;47.50;26.77;;;1.60;94.80;;;;;;4098793;29;20485;-80
2024/01/17 10:14:24;;;;;;;50.38;27.65;;;1.50;95.10;;;;;;4098651;29;20055;-79
2024/01/17 10:16:27;;;;;;;46.00;26.88;;;1.60;95.10;;;;;;4098956;29;20043;-80
2024/01/17 10:18:29;;;;;;;50.72;28.30;;;1.60;94.90;;;;;;4097163;29;20061;-79
2024/01/17 10:20:31;;;;;;;48.25;28.20;;;1.50;95.00;;;;;;4099160;29;20098;-80
2024/01/17 10:22:34;;;;;;;47.72;27.20;;;1.60;95.10;;;;;;4098877;29;20114;-79
2024/01/17 10:24:38;;;;;;;49.47;27.67;;;1.60;94.70;;;;;;4098490;29;20126;-80
2024/01/17 10:26:40;;;;;;;46.03;25.80;;;1.80;94.50;;;;;;4099046;29;20138;-80
2024/01/17 10:28:43;;;;;;;48.00;26.67;;;1.70;94.80;;;;;;4099680;29;20094;-77
2024/01/17 10:30:45;;;;;;;44.90;26.42;;;1.70;94.90;;;;;;4099362;29;20055;-79
2024/01/17 10:32:46;;;;;;;46.67;28.38;;;1.70;95.00;;;;;;4099261;29;20047;-80
2024/01/17 10:34:48;;;;;;;46.90;26.65;;;1.80;94.80;;;;;;4098814;29;20453;-79
2024/01/17 10:36:50;;;;;;;37.42;22.95;;;1.90;94.60;;;;;;4098603;29;20113;-79
2024/01/17 10:39:03;;;;;;;46.47;26.75;;;2.00;94.60;;;;;;4098413;29;20086;-79
2024/01/17 10:41:07;;;;;;;48.97;26.58;;;2.00;94.40;;;;;;4098448;29;20102;-81
2024/01/17 10:43:10;;;;;;;40.92;23.85;;;2.00;94.50;;;;;;4098523;29;20055;-80
2024/01/17 10:45:21;;;;;;;37.78;21.60;;;2.10;94.80;;;;;;4098578;29;20476;-79
2024/01/17 10:47:22;;;;;;;45.33;26.95;;;2.20;95.70;;;;;;4098424;29;20055;-80
2024/01/17 10:49:24;;;;;;;48.95;29.50;;;2.10;94.60;;;;;;4098385;29;20125;-81
2024/01/17 10:51:26;;;;;;;44.20;27.13;;;2.00;94.80;;;;;;4098697;29;20043;-79
2024/01/17 10:53:31;;;;;;;45.92;26.25;;;2.00;94.90;;;;;;4098453;29;20047;-78
2024/01/17 10:55:38;;;;;;;45.87;27.73;;;2.10;95.20;;;;;;4098529;29;20141;-78
2024/01/17 10:57:42;;;;;;;50.08;29.65;;;2.10;94.80;;;;;;4098596;29;20819;-79
2024/01/17 10:59:48;;;;;;;47.78;29.15;;;2.00;95.00;;;;;;4097996;28;20394;-81
2024/01/17 11:01:51;;;;;;;47.40;28.45;;;2.00;95.00;;;;;;4098358;29;20088;-80
2024/01/17 11:03:55;;;;;;;45.05;27.77;;;2.00;95.00;;;;;;4098133;29;20138;-80
2024/01/17 11:05:58;;;;;;;47.63;28.15;;;1.90;95.10;;;;;;4098437;29;20079;-81
2024/01/17 11:08:00;;;;;;;47.90;28.00;;;1.90;95.60;;;;;;4098196;29;20047;-80
2024/01/17 11:10:04;;;;;;;50.15;28.27;;;2.00;95.30;;;;;;4098307;29;20059;-78
2024/01/17 11:12:08;;;;;;;49.60;27.55;;;1.90;95.50;;;;;;4097951;29;20059;-80
2024/01/17 11:14:12;;;;;;;44.72;27.52;;;1.90;95.80;;;;;;4098056;29;20058;-80
2024/01/17 11:16:16;;;;;;;40.60;22.77;;;2.00;95.90;;;;;;4098823;29;20054;-85
2024/01/17 11:18:20;;;;;;;37.08;20.70;;;2.10;96.50;;;;;;4097090;29;20393;-88
2024/01/17 11:20:23;;;;;;;47.10;27.40;;;2.20;96.80;;;;;;4082513;29;20139;-88
2024/01/17 11:22:26;;;;;;;33.33;19.42;;;2.20;95.80;;;;;;4099446;29;20059;-88
2024/01/17 11:24:39;;;;;;;48.70;27.73;;;2.30;96.40;;;;;;4094975;29;20059;-87
2024/01/17 11:26:49;;;;;;;45.63;28.15;;;2.40;95.80;;;;;;4102603;29;20051;-85
2024/01/17 11:29:11;;;;;;;52.88;28.02;;;2.40;95.20;;;;;;4086802;29;20047;-85
2024/01/17 11:31:29;;;;;;;46.85;25.15;;;2.40;95.40;;;;;;4086002;29;20492;-87
2024/01/17 11:33:32;;;;;;;48.97;26.77;;;2.40;95.50;;;;;;4088000;29;20047;-85
2024/01/17 11:35:45;;;;;;;46.10;27.00;;;2.40;95.60;;;;;;4092060;29;20079;-86
2024/01/17 11:37:47;;;;;;;44.30;26.25;;;2.50;95.70;;;;;;4084214;29;20055;-79
2024/01/17 11:39:55;;;;;;;48.95;28.00;;;2.60;95.60;;;;;;4082929;29;20427;-83
2024/01/17 11:42:01;;;;;;;47.17;27.50;;;2.60;95.60;;;;;;4082029;29;20142;-79
2024/01/17 11:44:06;;;;;;;46.13;28.48;;;2.50;95.60;;;;;;4082833;29;20468;-79
2024/01/17 11:46:11;;;;;;;53.88;29.08;;;2.60;95.50;;;;;;4082575;29;20044;-78
2024/01/17 11:48:17;;;;;;;44.10;26.20;;;2.60;95.30;;;;;;4083807;29;20477;-79
2024/01/17 11:50:21;;;;;;;44.72;25.83;;;2.60;95.60;;;;;;4084025;29;20095;-83
2024/01/17 11:52:27;;;;;;;42.47;26.13;;;2.60;95.40;;;;;;4096653;29;20055;-83
2024/01/17 11:54:29;;;;;;;46.08;26.83;;;2.60;95.40;;;;;;4102251;29;20082;-81
2024/01/17 11:56:32;;;;;;;44.15;26.30;;;2.60;95.20;;;;;;4102010;29;20055;-81
2024/01/17 11:58:42;;;;;;;44.10;26.85;;;2.70;95.50;;;;;;4101590;29;20055;-82
2024/01/17 12:00:45;;;;;;;52.90;29.38;;;2.60;95.60;;;;;;4100124;29;20393;-81
2024/01/17 12:02:47;;;;;;;49.17;29.55;;;2.70;95.90;;;;;;4097632;29;20047;-83
2024/01/17 12:04:50;;;;;;;49.47;30.25;;;2.80;96.20;;;;;;4100602;29;20160;-84
2024/01/17 12:06:53;;;;;;;49.53;31.25;;;2.90;97.50;;;;;;4101956;29;20055;-80
2024/01/17 12:08:57;;;;;;;49.63;30.60;;;2.90;97.00;;;;;;4098069;29;20580;-82
2024/01/17 12:10:59;;;;;;;52.80;31.83;;;2.90;97.10;;;;;;4098909;28;20085;-80
2024/01/17 12:13:00;;;;;;;49.95;29.92;;;2.90;97.70;;;;;;4084158;29;20055;-82
2024/01/17 12:15:02;;;;;;;59.25;34.22;;;3.10;98.20;;;;;;4101088;29;20486;-81
2024/01/17 12:17:05;;;;;;;58.88;33.88;;;3.10;97.80;;;;;;4099396;29;20066;-81
2024/01/17 12:19:10;;;;;;;56.13;33.42;;;3.10;97.50;;;;;;4101307;29;20508;-81
2024/01/17 12:21:12;;;;;;;49.40;30.15;;;3.10;97.20;;;;;;4101273;29;20102;-79
2024/01/17 12:23:13;;;;;;;39.90;24.73;;;3.10;97.70;;;;;;4102234;29;20083;-81
2024/01/17 12:25:16;;;;;;;43.90;27.98;;;3.20;97.70;;;;;;4106224;29;20051;-81
2024/01/17 12:27:18;;;;;;;30.80;19.63;;;3.20;97.70;;;;;;4103067;29;20510;-85
2024/01/17 12:29:21;;;;;;;37.22;23.45;;;3.30;98.10;;;;;;4101408;29;20059;-82
2024/01/17 12:31:23;;;;;;;33.80;22.20;;;3.50;98.50;;;;;;4101610;28;20051;-83
2024/01/17 12:33:27;;;;;;;35.95;21.40;;;3.60;98.80;;;;;;4101360;29;20083;-83
2024/01/17 12:35:29;;;;;;;40.17;24.88;;;3.60;98.00;;;;;;4101101;29;20051;-82
2024/01/17 12:37:31;;;;;;;16.83;10.07;;;3.60;98.20;;;;;;4101196;29;20051;-82
2024/01/17 12:39:36;;;;;;;29.17;17.80;;;3.80;99.10;;;;;;4107435;29;20047;-84
2024/01/17 12:41:38;;;;;;;43.20;26.50;;;3.80;98.30;;;;;;4105092;29;20140;-83
2024/01/17 12:43:40;;;;;;;31.63;19.92;;;3.80;97.70;;;;;;4114440;29;20055;-82
2024/01/17 12:45:42;;;;;;;31.95;20.15;;;3.80;98.20;;;;;;4113109;29;20051;-82
2024/01/17 12:47:44;;;;;;;41.30;25.50;;;3.80;98.20;;;;;;4104881;29;20378;-84
2024/01/17 12:49:50;;;;;;;40.22;23.40;;;3.80;98.10;;;;;;4105707;29;20109;-84
2024/01/17 12:51:52;;;;;;;37.53;22.63;;;3.80;98.10;;;;;;4107751;29;20497;-84
2024/01/17 12:53:56;;;;;;;32.00;18.98;;;3.80;98.50;;;;;;4105833;29;20047;-83
2024/01/17 12:56:00;;;;;;;19.67;11.98;;;3.90;99.00;;;;;;4111258;29;20054;-84
2024/01/17 12:58:01;;;;;;;11.35;7.53;;;4.10;99.20;;;;;;4115488;29;20110;-85
2024/01/17 13:00:10;;;;;;;10.00;5.40;;;4.30;99.80;;;;;;4113014;29;20051;-81
2024/01/17 13:02:15;;;;;;;7.53;4.10;;;4.40;99.60;;;;;;4101320;29;20453;-81
2024/01/17 13:04:17;;;;;;;6.55;4.03;;;4.70;99.60;;;;;;4100328;29;20146;-83
2024/01/17 13:06:20;;;;;;;8.88;5.50;;;4.90;99.20;;;;;;4099972;29;20138;-83
2024/01/17 13:08:24;;;;;;;7.82;4.65;;;5.20;98.70;;;;;;4082977;29;20275;-84
2024/01/17 13:10:27;;;;;;;11.88;6.45;;;5.70;97.40;;;;;;4100477;29;20090;-84
2024/01/17 13:12:29;;;;;;;19.30;11.98;;;5.80;97.00;;;;;;4100125;29;20047;-81
2024/01/17 13:14:32;;;;;;;13.05;8.75;;;5.90;96.00;;;;;;4100243;29;20055;-81
2024/01/17 13:16:33;;;;;;;11.05;5.72;;;6.60;95.90;;;;;;4100168;29;20143;-83
2024/01/17 13:18:35;;;;;;;9.43;6.13;;;6.30;95.60;;;;;;4098158;29;20086;-83
2024/01/17 13:20:38;;;;;;;18.63;13.27;;;6.20;95.80;;;;;;4099662;29;20473;-83
2024/01/17 13:22:40;;;;;;;10.40;6.95;;;6.10;95.30;;;;;;4099697;28;20058;-81
2024/01/17 13:24:42;;;;;;;18.08;12.60;;;6.40;96.10;;;;;;4100247;29;20051;-83
2024/01/17 13:26:44;;;;;;;15.43;11.05;;;6.20;94.50;;;;;;4100531;29;20391;-83
2024/01/17 13:28:46;;;;;;;17.33;11.65;;;6.50;94.60;;;;;;4100026;29;20061;-82
2024/01/17 13:30:48;;;;;;;16.98;12.48;;;6.30;94.20;;;;;;4099723;29;20199;-80
2024/01/17 13:32:50;;;;;;;23.27;15.02;;;6.20;94.40;;;;;;4099709;29;20158;-82
2024/01/17 13:34:51;;;;;;;35.72;20.05;;;6.00;94.30;;;;;;4099475;29;20093;-82
2024/01/17 13:36:53;;;;;;;39.85;20.48;;;5.90;95.30;;;;;;4099734;29;20062;-83
2024/01/17 13:38:56;;;;;;;24.38;13.50;;;6.00;96.10;;;;;;4084803;29;20051;-82
2024/01/17 13:41:00;;;;;;;12.48;8.68;;;6.30;95.90;;;;;;4101757;29;20552;-81
2024/01/17 13:43:03;;;;;;;10.82;6.55;;;6.40;95.70;;;;;;4102050;29;20134;-83
2024/01/17 13:45:10;;;;;;;9.45;5.93;;;6.60;95.40;;;;;;4101932;29;20248;-83
2024/01/17 13:47:12;;;;;;;10.43;6.65;;;6.80;95.10;;;;;;4100718;29;20471;-83
2024/01/17 13:49:14;;;;;;;9.77;6.45;;;7.00;94.60;;;;;;4104844;29;20047;-84
2024/01/17 13:51:17;;;;;;;13.55;9.50;;;7.40;93.80;;;;;;4104975;29;20049;-83
2024/01/17 13:53:28;;;;;;;14.60;10.00;;;7.80;92.60;;;;;;4102564;29;20481;-83
2024/01/17 13:55:31;;;;;;;9.80;5.93;;;8.50;91.20;;;;;;4100627;29;20114;-81
2024/01/17 13:57:33;;;;;;;18.15;11.88;;;8.80;90.40;;;;;;4100219;29;20078;-83
2024/01/17 13:59:35;;;;;;;10.80;7.55;;;8.00;89.60;;;;;;4100732;29;20155;-83
2024/01/17 14:01:37;;;;;;;8.75;6.13;;;7.60;92.00;;;;;;4099618;29;20059;-83
2024/01/17 14:03:40;;;;;;;18.15;12.23;;;7.50;92.90;;;;;;4103428;29;20055;-82
2024/01/17 14:05:41;;;;;;;13.65;9.63;;;7.40;92.20;;;;;;4102875;29;20075;-81
2024/01/17 14:07:43;;;;;;;18.48;11.93;;;7.40;92.50;;;;;;4086135;29;20047;-81
2024/01/17 14:09:46;;;;;;;10.95;6.78;;;7.30;92.30;;;;;;4102790;29;20063;-83
2024/01/17 14:11:50;;;;;;;10.25;5.53;;;7.30;93.50;;;;;;4102391;29;20101;-82
2024/01/17 14:13:53;;;;;;;8.25;3.40;;;7.30;94.10;;;;;;4103854;29;20059;-83
2024/01/17 14:15:57;;;;;;;6.93;3.47;;;7.40;94.60;;;;;;4104296;29;20079;-83
2024/01/17 14:17:59;;;;;;;7.43;3.30;;;7.70;94.30;;;;;;4103077;29;20047;-83
2024/01/17 14:20:03;;;;;;;11.30;6.97;;;7.80;94.20;;;;;;4104523;29;20445;-83
2024/01/17 14:22:06;;;;;;;10.90;5.47;;;8.10;92.30;;;;;;4104653;29;20124;-83
2024/01/17 14:24:09;;;;;;;7.82;3.50;;;8.10;92.60;;;;;;4101797;29;20055;-84
2024/01/17 14:26:11;;;;;;;6.85;3.63;;;8.10;93.30;;;;;;4102907;29;20046;-83
2024/01/17 14:28:15;;;;;;;8.65;4.43;;;8.20;92.90;;;;;;4104701;29;20103;-84
2024/01/17 14:30:16;;;;;;;6.45;3.20;;;8.40;92.80;;;;;;4106168;29;20421;-84
2024/01/17 14:32:18;;;;;;;9.73;5.20;;;8.50;92.80;;;;;;4108838;29;20086;-83
2024/01/17 14:34:21;;;;;;;7.45;3.50;;;8.50;92.20;;;;;;4103919;28;20074;-82
2024/01/17 14:36:23;;;;;;;6.22;4.07;;;8.50;92.80;;;;;;4102163;29;20097;-82
2024/01/17 14:38:25;;;;;;;7.57;3.25;;;8.90;92.90;;;;;;4102173;29;20070;-80
2024/01/17 14:40:27;;;;;;;6.72;3.40;;;9.20;92.30;;;;;;4101978;29;20142;-81
2024/01/17 14:42:28;;;;;;;9.65;6.85;;;9.40;91.80;;;;;;4102037;29;20678;-82
2024/01/17 14:44:32;;;;;;;7.25;4.50;;;9.50;90.30;;;;;;4103140;29;20051;-81
2024/01/17 14:46:34;;;;;;;8.18;3.85;;;9.60;91.20;;;;;;4099395;29;20057;-82
2024/01/17 14:48:36;;;;;;;8.23;5.63;;;9.60;91.30;;;;;;4101454;29;20058;-82
2024/01/17 14:50:38;;;;;;;17.23;10.52;;;9.50;90.80;;;;;;4100943;29;20051;-81
2024/01/17 14:52:40;;;;;;;10.27;6.30;;;9.30;91.50;;;;;;4083735;29;20056;-81
2024/01/17 14:54:42;;;;;;;10.98;6.10;;;9.20;92.00;;;;;;4100140;29;20051;-81
2024/01/17 14:56:44;;;;;;;9.35;4.30;;;9.10;92.40;;;;;;4100640;29;20051;-83
2024/01/17 14:58:45;;;;;;;10.10;5.90;;;9.00;92.70;;;;;;4105640;29;20060;-81
2024/01/17 15:00:49;;;;;;;23.42;15.48;;;8.90;92.20;;;;;;4102622;29;20067;-82
2024/01/17 15:02:50;;;;;;;19.90;14.27;;;8.80;90.80;;;;;;4101699;29;20383;-82
2024/01/17 15:04:51;;;;;;;22.20;15.55;;;8.80;90.30;;;;;;4104647;29;20094;-83
2024/01/17 15:06:53;;;;;;;15.40;10.30;;;8.70;90.50;;;;;;4106814;29;20051;-83
2024/01/17 15:08:55;;;;;;;23.92;16.52;;;8.60;90.70;;;;;;4105759;29;20058;-81
2024/01/17 15:10:57;;;;;;;16.65;11.05;;;8.20;90.20;;;;;;4098689;29;20118;-81
2024/01/17 15:12:59;;;;;;;18.25;13.52;;;7.90;92.00;;;;;;4098467;29;20051;-84
2024/01/17 15:15:01;;;;;;;14.50;9.60;;;7.80;91.00;;;;;;4098433;29;20047;-82
2024/01/17 15:17:04;;;;;;;14.93;7.80;;;7.70;92.50;;;;;;4095947;29;20043;-79
2024/01/17 15:19:06;;;;;;;10.55;6.85;;;7.80;93.00;;;;;;4084821;29;20060;-79
2024/01/17 15:21:13;;;;;;;10.70;7.45;;;7.90;93.40;;;;;;4096948;28;20449;-80
2024/01/17 15:23:14;;;;;;;9.07;4.32;;;7.90;92.70;;;;;;4097718;29;20077;-77
2024/01/17 15:25:17;;;;;;;5.80;3.40;;;7.90;93.60;;;;;;4099451;29;20083;-80
2024/01/17 15:27:18;;;;;;;8.52;3.50;;;8.00;93.90;;;;;;4098632;29;20098;-79
2024/01/17 15:29:20;;;;;;;5.45;2.30;;;8.00;93.90;;;;;;4098422;29;20074;-80
2024/01/17 15:31:22;;;;;;;13.88;8.68;;;8.10;94.80;;;;;;4098091;29;20102;-78
2024/01/17 15:33:25;;;;;;;13.40;9.40;;;7.80;91.10;;;;;;4098633;29;20057;-80
2024/01/17 15:35:27;;;;;;;15.00;10.93;;;7.40;91.10;;;;;;4098030;29;20058;-80
2024/01/17 15:37:29;;;;;;;9.63;6.30;;;7.10;91.60;;;;;;4081343;29;20063;-82
2024/01/17 15:39:32;;;;;;;6.32;3.70;;;7.20;93.80;;;;;;4098559;29;20059;-82
2024/01/17 15:41:34;;;;;;;5.88;3.20;;;7.30;94.70;;;;;;4098578;29;20212;-82
2024/01/17 15:43:38;;;;;;;5.97;2.75;;;7.40;95.00;;;;;;4093380;28;20095;-82
2024/01/17 15:45:40;;;;;;;6.57;2.50;;;7.50;95.50;;;;;;4098973;28;20054;-84
2024/01/17 15:47:42;;;;;;;8.18;2.42;;;7.60;95.80;;;;;;4102616;29;20453;-81
2024/01/17 15:49:45;;;;;;;8.15;3.92;;;7.70;95.30;;;;;;4100632;28;20091;-82
2024/01/17 15:51:47;;;;;;;7.60;3.95;;;7.70;94.40;;;;;;4101348;29;20047;-81
2024/01/17 15:53:48;;;;;;;7.15;2.97;;;7.60;94.10;;;;;;4101115;29;20525;-82
2024/01/17 15:55:50;;;;;;;6.38;2.80;;;7.60;94.80;;;;;;4101506;29;20047;-82
2024/01/17 15:57:52;;;;;;;4.68;1.98;;;7.60;94.60;;;;;;4101284;29;20085;-82
2024/01/17 15:59:54;;;;;;;6.53;2.30;;;7.70;94.90;;;;;;4101472;29;20461;-81
2024/01/17 16:01:55;;;;;;;4.30;2.00;;;7.80;94.80;;;;;;4101169;29;20051;-83
2024/01/17 16:03:57;;;;;;;5.72;1.92;;;7.80;94.70;;;;;;4103132;29;20106;-82
2024/01/17 16:06:04;;;;;;;5.68;2.08;;;7.90;94.60;;;;;;4101135;29;20074;-81
2024/01/17 16:08:06;;;;;;;6.22;1.70;;;7.90;94.60;;;;;;4101279;29;20047;-80
2024/01/17 16:10:09;;;;;;;4.65;1.95;;;7.80;94.60;;;;;;4101098;29;20055;-79
2024/01/17 16:12:11;;;;;;;5.07;2.20;;;7.90;94.60;;;;;;4101020;29;20106;-81
2024/01/17 16:14:13;;;;;;;7.00;3.45;;;7.90;94.50;;;;;;4101046;29;20051;-80
2024/01/17 16:16:15;;;;;;;7.63;3.70;;;7.80;94.30;;;;;;4083940;29;20453;-83
2024/01/17 16:18:18;;;;;;;8.30;4.00;;;7.80;94.40;;;;;;4099706;29;20059;-82
2024/01/17 16:20:21;;;;;;;5.55;2.33;;;7.90;94.30;;;;;;4101792;29;20416;-81
2024/01/17 16:22:25;;;;;;;5.93;2.22;;;7.90;94.20;;;;;;4100271;29;20051;-78
2024/01/17 16:24:27;;;;;;;3.97;2.40;;;7.90;94.10;;;;;;4089095;29;20051;-79
2024/01/17 16:26:29;;;;;;;7.38;2.60;;;7.90;94.00;;;;;;4100534;29;20499;-79
2024/01/17 16:28:31;;;;;;;5.50;1.92;;;7.90;94.10;;;;;;4100568;29;20082;-79
2024/01/17 16:30:33;;;;;;;4.88;2.10;;;7.90;94.10;;;;;;4100108;29;20051;-81
2024/01/17 16:32:35;;;;;;;6.22;1.95;;;8.00;94.20;;;;;;4100287;29;20138;-79